createdAt,value
2022-10-17T00:00:55.910Z,99810.47
2022-10-17T00:03:22.686Z,99824.03
2022-10-17T00:05:49.577Z,99815.38
2022-10-17T00:08:18.836Z,99815.19
2022-10-17T00:10:46.428Z,99809.94
2022-10-17T00:13:13.281Z,99810.63
2022-10-17T00:15:44.842Z,99812.09
2022-10-17T00:18:11.724Z,99811.09
2022-10-17T00:20:38.432Z,99801.50
2022-10-17T00:23:05.189Z,99805.63
2022-10-17T00:25:31.972Z,99803.72
2022-10-17T00:27:58.650Z,99803.56
2022-10-17T00:30:25.738Z,99806.75
2022-10-17T00:32:52.489Z,99809.16
2022-10-17T00:35:19.246Z,99810.75
2022-10-17T00:37:45.973Z,99814.06
2022-10-17T00:40:13.133Z,99815.69
2022-10-17T00:42:40.068Z,99816.53
2022-10-17T00:45:19.894Z,99809.56
2022-10-17T00:47:55.008Z,99822.31
2022-10-17T00:50:23.729Z,99817.06
2022-10-17T00:52:51.922Z,99814.34
2022-10-17T00:55:31.028Z,99819.31
2022-10-17T00:58:02.376Z,99822.63
2022-10-17T01:00:29.453Z,99817.34
2022-10-17T01:02:56.350Z,99823.22
2022-10-17T01:05:23.231Z,99821.31
2022-10-17T01:07:52.847Z,99805.78
2022-10-17T01:10:20.763Z,99815.00
2022-10-17T01:13:44.637Z,99810.69
2022-10-17T01:16:18.923Z,99795.19
2022-10-17T01:19:17.374Z,99799.31
2022-10-17T01:22:01.071Z,99800.91
2022-10-17T01:24:59.617Z,99808.44
2022-10-17T01:27:56.675Z,99802.38
2022-10-17T01:30:32.315Z,99812.56
2022-10-17T01:33:25.581Z,99810.75
2022-10-17T01:36:03.310Z,99805.59
2022-10-17T01:38:50.317Z,99803.84
2022-10-17T01:41:49.486Z,99803.97
2022-10-17T01:44:42.643Z,99815.94
2022-10-17T01:47:15.897Z,99802.22
2022-10-17T01:49:45.967Z,99801.31
2022-10-17T01:52:28.187Z,99801.22
2022-10-17T01:55:12.111Z,99791.75
2022-10-17T01:57:50.463Z,99790.81
2022-10-17T02:00:25.768Z,99801.00
2022-10-17T02:03:04.933Z,99792.41
2022-10-17T02:05:38.773Z,99788.03
2022-10-17T02:08:06.736Z,99786.25
2022-10-17T02:11:02.918Z,99786.13
2022-10-17T02:13:43.278Z,99786.13
2022-10-17T02:16:56.433Z,99786.19
2022-10-17T02:19:46.640Z,99784.44
2022-10-17T02:22:49.634Z,99784.44
2022-10-17T02:25:51.561Z,99778.44
2022-10-17T02:28:44.598Z,99781.78
2022-10-17T02:31:22.142Z,99773.91
2022-10-17T02:33:58.569Z,99775.50
2022-10-17T02:36:35.033Z,99773.75
2022-10-17T02:39:04.906Z,99773.75
2022-10-17T02:41:33.726Z,99778.75
2022-10-17T02:44:05.095Z,99780.38
2022-10-17T02:46:34.321Z,99773.47
2022-10-17T02:49:31.407Z,99781.16
2022-10-17T02:52:03.095Z,99771.66
2022-10-17T02:54:54.390Z,99775.84
2022-10-17T02:58:02.992Z,99777.53
2022-10-17T03:00:32.608Z,99774.06
2022-10-17T03:02:59.373Z,99779.06
2022-10-17T03:05:30.269Z,99775.50
2022-10-17T03:07:57.280Z,99771.97
2022-10-17T03:10:24.242Z,99776.94
2022-10-17T03:12:50.993Z,99779.31
2022-10-17T03:15:17.813Z,99783.44
2022-10-17T03:20:12.188Z,99786.66
2022-10-17T03:22:38.940Z,99794.28
2022-10-17T03:25:06.126Z,99790.75
2022-10-17T03:27:33.125Z,99802.66
2022-10-17T03:29:59.962Z,99801.72
2022-10-17T03:32:26.676Z,99795.63
2022-10-17T03:34:53.363Z,99798.09
2022-10-17T03:37:20.160Z,99799.72
2022-10-17T03:39:46.953Z,99798.75
2022-10-17T03:42:13.663Z,99793.47
2022-10-17T03:44:40.414Z,99805.41
2022-10-17T03:47:09.254Z,99807.06
2022-10-17T03:49:38.684Z,99805.31
2022-10-17T03:52:05.489Z,99806.13
2022-10-17T03:54:32.236Z,99812.97
2022-10-17T03:56:59.005Z,99806.13
2022-10-17T03:59:25.719Z,99813.91
2022-10-17T04:01:52.659Z,99818.19
2022-10-17T04:04:19.525Z,99819.94
2022-10-17T04:06:46.237Z,99809.72
2022-10-17T04:09:13.034Z,99814.91
2022-10-17T04:11:40.056Z,99811.50
2022-10-17T04:14:06.879Z,99813.34
2022-10-17T04:16:33.738Z,99807.38
2022-10-17T04:19:01.198Z,99811.69
2022-10-17T04:21:29.221Z,99810.84
2022-10-17T04:24:00.694Z,99813.47
2022-10-17T04:26:27.742Z,99813.47
2022-10-17T04:28:54.479Z,99816.94
2022-10-17T04:31:21.268Z,99819.44
2022-10-17T04:33:50.582Z,99823.75
2022-10-17T04:36:20.064Z,99825.53
2022-10-17T04:38:47.286Z,99822.97
2022-10-17T04:41:17.387Z,99817.06
2022-10-17T04:43:47.006Z,99818.78
2022-10-17T04:46:16.956Z,99817.16
2022-10-17T04:48:43.745Z,99822.31
2022-10-17T04:51:20.597Z,99826.56
2022-10-17T04:53:49.922Z,99820.53
2022-10-17T04:56:20.352Z,99834.19
2022-10-17T04:58:48.320Z,99831.63
2022-10-17T05:01:19.046Z,99835.84
2022-10-17T05:03:46.926Z,99830.69
2022-10-17T05:06:18.389Z,99838.38
2022-10-17T05:08:46.564Z,99835.84
2022-10-17T05:11:28.536Z,99842.66
2022-10-17T05:14:01.515Z,99836.69
2022-10-17T05:16:29.530Z,99849.63
2022-10-17T05:18:58.235Z,99852.13
2022-10-17T05:21:27.197Z,99859.00
2022-10-17T05:23:54.217Z,99853.91
2022-10-17T05:26:22.274Z,99854.75
2022-10-17T05:28:49.262Z,99852.28
2022-10-17T05:31:16.110Z,99855.66
2022-10-17T05:33:43.013Z,99852.28
2022-10-17T05:36:10.101Z,99863.44
2022-10-17T05:38:36.858Z,99860.06
2022-10-17T05:41:05.543Z,99855.88
2022-10-17T05:43:33.397Z,99860.19
2022-10-17T05:46:04.977Z,99860.25
2022-10-17T05:48:32.005Z,99865.44
2022-10-17T05:51:02.212Z,99869.81
2022-10-17T05:53:34.656Z,99869.75
2022-10-17T05:56:05.486Z,99862.09
2022-10-17T05:58:52.286Z,99869.03
2022-10-17T06:01:20.236Z,99874.28
2022-10-17T06:03:47.010Z,99864.94
2022-10-17T06:06:15.210Z,99867.50
2022-10-17T06:08:42.045Z,99874.38
2022-10-17T06:11:10.321Z,99876.03
2022-10-17T06:13:40.290Z,99875.13
2022-10-17T06:16:07.820Z,99884.31
2022-10-17T06:18:35.118Z,99876.28
2022-10-17T06:21:05.726Z,99875.88
2022-10-17T06:23:33.376Z,99879.06
2022-10-17T06:26:02.285Z,99879.59
2022-10-17T06:28:29.213Z,99876.06
2022-10-17T06:30:56.162Z,99883.50
2022-10-17T06:33:23.378Z,99884.16
2022-10-17T06:35:56.716Z,99894.16
2022-10-17T06:38:23.717Z,99898.16
2022-10-17T06:40:50.542Z,99894.28
2022-10-17T06:43:17.317Z,99893.59
2022-10-17T06:45:47.609Z,99903.69
2022-10-17T06:48:14.868Z,99902.56
2022-10-17T06:50:41.691Z,99904.63
2022-10-17T06:53:08.365Z,99901.53
2022-10-17T06:55:35.140Z,99898.25
2022-10-17T06:58:01.827Z,99907.28
2022-10-17T07:00:28.617Z,99899.47
2022-10-17T07:02:55.338Z,99902.91
2022-10-17T07:05:22.110Z,99900.16
2022-10-17T07:07:51.044Z,99908.69
2022-10-17T07:10:18.702Z,99896.47
2022-10-17T07:12:45.856Z,99888.00
2022-10-17T07:15:13.018Z,99900.56
2022-10-17T07:17:39.852Z,99902.75
2022-10-17T07:20:07.455Z,99908.34
2022-10-17T07:22:34.386Z,99907.72
2022-10-17T07:25:01.175Z,99908.56
2022-10-17T07:27:28.229Z,99908.47
2022-10-17T07:29:55.106Z,99916.25
2022-10-17T07:32:21.813Z,99917.38
2022-10-17T07:34:48.519Z,99922.75
2022-10-17T07:37:15.475Z,99925.50
2022-10-17T07:39:42.328Z,99938.72
2022-10-17T07:42:09.074Z,99929.53
2022-10-17T07:44:35.885Z,99929.88
2022-10-17T07:47:02.712Z,99926.75
2022-10-17T07:49:30.176Z,99930.63
2022-10-17T07:51:57.158Z,99940.69
2022-10-17T07:54:24.010Z,99942.38
2022-10-17T07:56:50.949Z,99948.66
2022-10-17T07:59:20.554Z,99949.72
2022-10-17T08:01:47.325Z,99950.09
2022-10-17T08:04:14.152Z,99952.09
2022-10-17T08:06:40.854Z,99953.22
2022-10-17T08:09:07.591Z,99948.19
2022-10-17T08:11:35.909Z,99948.75
2022-10-17T08:14:02.828Z,99959.53
2022-10-17T08:16:29.751Z,99955.09
2022-10-17T08:18:56.519Z,99963.97
2022-10-17T08:21:23.376Z,99970.34
2022-10-17T08:23:50.075Z,99977.66
2022-10-17T08:26:19.883Z,99980.56
2022-10-17T08:28:47.882Z,99991.28
2022-10-17T08:31:19.925Z,99996.84
2022-10-17T08:33:48.260Z,99987.47
2022-10-17T08:36:18.785Z,100000.41
2022-10-17T08:38:47.963Z,99994.38
2022-10-17T08:41:56.614Z,100000.88
2022-10-17T08:44:40.194Z,100009.00
2022-10-17T08:47:33.894Z,100010.13
2022-10-17T08:50:06.397Z,100013.13
2022-10-17T08:52:47.415Z,100021.63
2022-10-17T08:55:28.472Z,100012.56
2022-10-17T08:57:55.295Z,100016.19
2022-10-17T09:00:23.278Z,100020.16
2022-10-17T09:03:26.882Z,100033.59
2022-10-17T09:06:10.828Z,100039.34
2022-10-17T09:09:25.062Z,100032.81
2022-10-17T09:12:14.136Z,100038.09
2022-10-17T09:15:43.022Z,100046.72
2022-10-17T09:18:36.394Z,100042.88
2022-10-17T09:21:39.459Z,100043.00
2022-10-17T09:24:16.965Z,100049.19
2022-10-17T09:26:46.773Z,100055.09
2022-10-17T09:29:25.727Z,100055.72
2022-10-17T09:32:25.015Z,100071.16
2022-10-17T09:34:53.850Z,100066.41
2022-10-17T09:37:32.446Z,100065.72
2022-10-17T09:39:59.257Z,100073.72
2022-10-17T09:42:28.311Z,100073.06
2022-10-17T09:45:11.001Z,100063.94
2022-10-17T09:48:10.137Z,100071.94
2022-10-17T09:50:37.408Z,100082.53
2022-10-17T09:53:15.677Z,100090.44
2022-10-17T09:55:55.491Z,100087.25
2022-10-17T09:58:22.913Z,100095.13
2022-10-17T10:00:50.274Z,100094.31
2022-10-17T10:03:20.718Z,100097.81
2022-10-17T10:06:12.352Z,100102.47
2022-10-17T10:08:55.154Z,100099.34
2022-10-17T10:11:51.271Z,100108.41
2022-10-17T10:14:37.565Z,100120.78
2022-10-17T10:17:25.679Z,100128.63
2022-10-17T10:19:53.180Z,100126.41
2022-10-17T10:22:25.834Z,100135.16
2022-10-17T10:25:17.358Z,100131.22
2022-10-17T10:27:46.875Z,100120.09
2022-10-17T10:30:31.441Z,100110.88
2022-10-17T10:33:00.808Z,100112.63
2022-10-17T10:35:35.683Z,100107.44
2022-10-17T10:38:10.143Z,100112.50
2022-10-17T10:40:47.054Z,100099.56
2022-10-17T10:43:34.209Z,100112.41
2022-10-17T10:46:05.277Z,100125.34
2022-10-17T10:48:51.632Z,100132.88
2022-10-17T10:51:27.690Z,100128.38
2022-10-17T10:54:30.899Z,100121.41
2022-10-17T10:57:03.833Z,100129.72
2022-10-17T10:59:56.529Z,100129.47
2022-10-17T11:02:54.495Z,100140.38
2022-10-17T11:05:48.106Z,100145.22
2022-10-17T11:08:35.174Z,100154.47
2022-10-17T11:11:24.715Z,100154.03
2022-10-17T11:14:03.434Z,100167.34
2022-10-17T11:16:38.937Z,100174.59
2022-10-17T11:19:18.396Z,100186.16
2022-10-17T11:21:58.901Z,100190.06
2022-10-17T11:24:56.800Z,100195.50
2022-10-17T11:27:25.077Z,100206.44
2022-10-17T11:29:52.086Z,100212.06
2022-10-17T11:32:40.425Z,100212.75
2022-10-17T11:35:25.181Z,100210.88
2022-10-17T11:38:15.825Z,100215.16
2022-10-17T11:40:49.202Z,100218.66
2022-10-17T11:43:26.547Z,100223.09
2022-10-17T11:46:01.242Z,100227.50
2022-10-17T11:49:03.740Z,100231.09
2022-10-17T11:52:05.420Z,100229.59
2022-10-17T11:54:48.659Z,100232.94
2022-10-17T11:57:42.022Z,100214.66
2022-10-17T12:00:46.167Z,100218.91
2022-10-17T12:03:41.380Z,100219.66
2022-10-17T12:06:32.135Z,100224.72
2022-10-17T12:09:18.977Z,100237.41
2022-10-17T12:11:55.871Z,100226.97
2022-10-17T12:14:43.354Z,100231.78
2022-10-17T12:17:29.739Z,100236.66
2022-10-17T12:20:21.349Z,100236.50
2022-10-17T12:22:56.278Z,100240.53
2022-10-17T12:25:34.524Z,100229.19
2022-10-17T12:28:06.806Z,100245.47
2022-10-17T12:30:34.834Z,100247.25
2022-10-17T12:33:12.465Z,100249.06
2022-10-17T12:35:39.581Z,100240.69
2022-10-17T12:38:18.215Z,100247.72
2022-10-17T12:40:49.058Z,100247.84
2022-10-17T12:43:15.871Z,100260.91
2022-10-17T12:46:03.515Z,100258.41
2022-10-17T12:48:39.449Z,100263.66
2022-10-17T12:51:35.731Z,100264.56
2022-10-17T12:54:14.771Z,100265.72
2022-10-17T12:56:49.712Z,100254.66
2022-10-17T12:59:29.211Z,100257.31
2022-10-17T13:02:03.003Z,100259.22
2022-10-17T13:04:31.830Z,100261.03
2022-10-17T13:07:01.189Z,100261.97
2022-10-17T13:09:37.645Z,100263.78
2022-10-17T13:12:13.580Z,100270.13
2022-10-17T13:14:43.070Z,100266.84
2022-10-17T13:17:30.588Z,100270.66
2022-10-17T13:19:58.562Z,100272.66
2022-10-17T13:22:32.460Z,100274.56
2022-10-17T13:25:19.647Z,100275.69
2022-10-17T13:27:48.518Z,100285.19
2022-10-17T13:30:32.417Z,100286.09
2022-10-17T13:33:01.129Z,100296.47
2022-10-17T13:35:58.713Z,100283.47
2022-10-17T13:38:30.330Z,100292.97
2022-10-17T13:41:05.786Z,100288.69
2022-10-17T13:43:43.850Z,100300.91
2022-10-17T13:46:38.965Z,100298.44
2022-10-17T13:49:39.327Z,100298.53
2022-10-17T13:52:17.245Z,100295.94
2022-10-17T13:54:50.954Z,100301.03
2022-10-17T13:57:22.974Z,100306.09
2022-10-17T13:59:57.798Z,100310.28
2022-10-17T14:02:29.757Z,100317.06
2022-10-17T14:05:23.697Z,100322.25
2022-10-17T14:08:11.455Z,100336.81
2022-10-17T14:10:42.814Z,100331.63
2022-10-17T14:13:35.869Z,100336.03
2022-10-17T14:16:04.158Z,100334.25
2022-10-17T14:18:36.666Z,100345.47
2022-10-17T14:24:24.026Z,100342.34
2022-10-17T14:26:58.848Z,100345.00
2022-10-17T14:29:50.991Z,100362.44
2022-10-17T14:32:19.958Z,100356.41
2022-10-17T14:34:47.144Z,100364.03
2022-10-17T14:37:45.313Z,100363.16
2022-10-17T14:40:23.602Z,100368.25
2022-10-17T14:42:54.277Z,100361.22
2022-10-17T14:45:36.774Z,100370.06
2022-10-17T14:48:10.473Z,100364.88
2022-10-17T14:50:37.562Z,100366.72
2022-10-17T14:53:10.193Z,100366.72
2022-10-17T14:55:40.397Z,100386.50
2022-10-17T14:58:28.325Z,100367.75
2022-10-17T15:00:57.142Z,100359.97
2022-10-17T15:03:25.111Z,100353.97
2022-10-17T15:05:54.652Z,100369.59
2022-10-17T15:08:23.714Z,100383.53
2022-10-17T15:10:51.786Z,100394.84
2022-10-17T15:13:41.084Z,100405.38
2022-10-17T15:16:35.182Z,100406.78
2022-10-17T15:19:01.961Z,100412.19
2022-10-17T15:21:47.229Z,100421.06
2022-10-17T15:24:15.677Z,100413.72
2022-10-17T15:26:42.587Z,100422.59
2022-10-17T15:29:16.001Z,100434.13
2022-10-17T15:31:42.711Z,100442.06
2022-10-17T15:34:09.383Z,100450.09
2022-10-17T15:36:49.609Z,100448.69
2022-10-17T15:39:16.509Z,100463.69
2022-10-17T15:41:43.972Z,100460.63
2022-10-17T15:44:10.736Z,100465.28
2022-10-17T15:46:41.376Z,100466.63
2022-10-17T15:49:14.710Z,100482.75
2022-10-17T15:52:02.805Z,100470.78
2022-10-17T15:54:29.586Z,100487.78
2022-10-17T15:56:56.352Z,100487.63
2022-10-17T15:59:31.757Z,100478.84
2022-10-17T16:01:59.385Z,100483.00
2022-10-17T16:04:32.487Z,100472.41
2022-10-17T16:06:59.177Z,100473.91
2022-10-17T16:09:25.906Z,100472.81
2022-10-17T16:11:52.626Z,100476.78
2022-10-17T16:14:19.391Z,100475.56
2022-10-17T16:16:46.136Z,100476.00
2022-10-17T16:19:12.910Z,100491.00
2022-10-17T16:21:41.463Z,100504.13
2022-10-17T16:24:12.087Z,100516.41
2022-10-17T16:26:40.282Z,100515.81
2022-10-17T16:29:07.124Z,100509.16
2022-10-17T16:31:36.620Z,100510.16
2022-10-17T16:34:06.333Z,100512.91
2022-10-17T16:36:33.433Z,100523.41
2022-10-17T16:39:00.596Z,100519.25
2022-10-17T16:41:32.747Z,100527.09
2022-10-17T16:44:04.009Z,100524.63
2022-10-17T16:46:33.292Z,100525.59
2022-10-17T16:49:00.114Z,100534.25
2022-10-17T16:51:29.023Z,100536.97
2022-10-17T16:53:58.038Z,100532.81
2022-10-17T16:56:25.234Z,100537.19
2022-10-17T16:58:52.959Z,100530.41
2022-10-17T17:01:23.423Z,100530.50
2022-10-17T17:03:51.609Z,100535.66
2022-10-17T17:06:28.174Z,100538.34
2022-10-17T17:08:56.463Z,100541.88
2022-10-17T17:11:26.142Z,100541.09
2022-10-17T17:13:57.145Z,100552.28
2022-10-17T17:16:26.662Z,100552.41
2022-10-17T17:19:04.561Z,100541.34
2022-10-17T17:21:32.641Z,100545.78
2022-10-17T17:24:01.631Z,100550.13
2022-10-17T17:26:33.177Z,100563.06
2022-10-17T17:29:00.811Z,100559.78
2022-10-17T17:31:31.510Z,100568.41
2022-10-17T17:33:59.050Z,100565.97
2022-10-17T17:36:33.699Z,100573.69
2022-10-17T17:39:04.022Z,100575.53
2022-10-17T17:41:31.032Z,100572.19
2022-10-17T17:43:58.119Z,100575.66
2022-10-17T17:46:25.758Z,100579.16
2022-10-17T17:48:55.024Z,100586.91
2022-10-17T17:51:28.323Z,100580.16
2022-10-17T17:53:56.522Z,100570.81
2022-10-17T17:56:27.399Z,100576.88
2022-10-17T17:58:58.162Z,100573.47
2022-10-17T18:01:28.334Z,100566.72
2022-10-17T18:03:58.957Z,100577.13
2022-10-17T18:06:27.193Z,100587.50
2022-10-17T18:08:58.016Z,100594.38
2022-10-17T18:11:27.316Z,100593.63
2022-10-17T18:14:01.215Z,100598.81
2022-10-17T18:16:30.526Z,100598.94
2022-10-17T18:19:02.641Z,100598.16
2022-10-17T18:21:33.070Z,100605.06
2022-10-17T18:24:00.406Z,100601.75
2022-10-17T18:26:28.544Z,100600.91
2022-10-17T18:28:55.792Z,100600.94
2022-10-17T18:31:28.222Z,100600.16
2022-10-17T18:33:58.146Z,100593.38
2022-10-17T18:36:26.133Z,100595.16
2022-10-17T18:38:54.388Z,100595.16
2022-10-17T18:41:24.856Z,100595.25
2022-10-17T18:43:54.211Z,100597.84
2022-10-17T18:46:29.654Z,100601.28
2022-10-17T18:48:57.357Z,100603.03
2022-10-17T18:51:25.752Z,100603.97
2022-10-17T18:53:58.512Z,100603.97
2022-10-17T18:56:25.880Z,100609.19
2022-10-17T18:58:52.948Z,100612.69
2022-10-17T19:01:23.346Z,100614.44
2022-10-17T19:03:58.046Z,100612.78
2022-10-17T19:06:31.587Z,100606.03
2022-10-17T19:09:04.984Z,100600.09
2022-10-17T19:11:34.123Z,100609.56
2022-10-17T19:14:04.393Z,100620.75
2022-10-17T19:16:48.137Z,100628.47
2022-10-17T19:19:21.116Z,100630.19
2022-10-17T19:21:48.611Z,100628.53
2022-10-17T19:24:25.243Z,100624.28
2022-10-17T19:26:56.362Z,100636.28
2022-10-17T19:29:31.187Z,100637.16
2022-10-17T19:32:01.291Z,100638.03
2022-10-17T19:34:28.737Z,100620.09
2022-10-17T19:36:56.492Z,100627.75
2022-10-17T19:39:25.092Z,100632.91
2022-10-17T19:41:53.075Z,100627.75
2022-10-17T19:44:20.463Z,100629.50
2022-10-17T19:46:51.088Z,100626.06
2022-10-17T19:49:18.176Z,100630.38
2022-10-17T19:51:45.010Z,100628.66
2022-10-17T19:54:12.776Z,100629.53
2022-10-17T19:56:40.285Z,100633.81
2022-10-17T19:59:08.367Z,100623.56
2022-10-17T20:01:38.908Z,100621.00
2022-10-17T20:04:10.878Z,100629.59
2022-10-17T20:06:38.112Z,100627.03
2022-10-17T20:09:07.340Z,100619.31
2022-10-17T20:11:35.510Z,100605.59
2022-10-17T20:14:02.350Z,100614.16
2022-10-17T20:16:33.866Z,100613.28
2022-10-17T20:19:11.296Z,100612.41
2022-10-17T20:21:39.716Z,100606.44
2022-10-17T20:24:11.427Z,100609.00
2022-10-17T20:26:39.476Z,100614.13
2022-10-17T20:29:20.259Z,100616.66
2022-10-17T20:31:48.285Z,100616.66
2022-10-17T20:34:18.912Z,100618.41
2022-10-17T20:36:46.555Z,100623.53
2022-10-17T20:39:15.322Z,100636.38
2022-10-17T20:41:43.167Z,100636.38
2022-10-17T20:44:11.535Z,100638.09
2022-10-17T20:46:44.658Z,100644.09
2022-10-17T20:49:17.791Z,100644.97
2022-10-17T20:51:45.531Z,100646.66
2022-10-17T20:54:12.789Z,100640.72
2022-10-17T20:56:39.884Z,100644.06
2022-10-17T20:59:12.607Z,100642.38
2022-10-17T21:01:39.663Z,100649.19
2022-10-17T21:04:33.236Z,100659.47
2022-10-17T21:06:53.549Z,100661.25
2022-10-17T21:09:21.002Z,100663.81
2022-10-17T21:11:51.139Z,100661.25
2022-10-17T21:14:18.387Z,100668.09
2022-10-17T21:16:45.487Z,100666.41
2022-10-17T21:19:13.176Z,100664.75
2022-10-17T21:21:43.561Z,100664.81
2022-10-17T21:24:14.261Z,100673.41
2022-10-17T21:26:43.391Z,100682.88
2022-10-17T21:29:12.693Z,100677.75
2022-10-17T21:31:43.317Z,100682.03
2022-10-17T21:34:18.256Z,100681.22
2022-10-17T21:36:45.665Z,100680.34
2022-10-17T21:39:14.139Z,100678.66
2022-10-17T21:41:41.864Z,100678.66
2022-10-17T21:44:22.142Z,100674.38
2022-10-17T21:46:49.362Z,100675.22
2022-10-17T21:49:21.365Z,100672.66
2022-10-17T21:51:49.195Z,100676.13
2022-10-17T21:54:18.081Z,100676.97
2022-10-17T21:56:45.122Z,100674.41
2022-10-17T21:59:11.870Z,100676.13
2022-10-17T22:01:42.052Z,100672.69
2022-10-17T22:04:13.331Z,100671.84
2022-10-17T22:06:42.526Z,100679.50
2022-10-17T22:09:17.829Z,100686.34
2022-10-17T22:11:48.444Z,100684.66
2022-10-17T22:14:20.216Z,100673.50
2022-10-17T22:16:48.953Z,100674.34
2022-10-17T22:19:24.424Z,100667.47
2022-10-17T22:21:52.338Z,100673.47
2022-10-17T22:26:52.698Z,100672.63
2022-10-17T22:29:19.898Z,100676.00
2022-10-17T22:31:47.182Z,100678.56
2022-10-17T22:34:16.226Z,100684.56
2022-10-17T22:36:43.169Z,100679.44
2022-10-17T22:39:11.620Z,100674.31
2022-10-17T22:41:38.480Z,100673.47
2022-10-17T22:44:05.866Z,100679.44
2022-10-17T22:46:32.727Z,100674.31
2022-10-17T22:48:59.517Z,100678.56
2022-10-17T22:51:26.782Z,100682.88
2022-10-17T22:53:53.510Z,100680.31
2022-10-17T22:56:22.077Z,100676.88
2022-10-17T22:58:49.477Z,100671.75
2022-10-17T23:01:21.584Z,100668.34
2022-10-17T23:03:49.220Z,100671.78
2022-10-17T23:06:17.168Z,100670.91
2022-10-17T23:08:44.375Z,100668.34
2022-10-17T23:11:11.376Z,100673.44
2022-10-17T23:13:39.675Z,100675.19
2022-10-17T23:16:07.074Z,100670.88
2022-10-17T23:18:34.020Z,100671.72
2022-10-17T23:21:00.744Z,100671.75
2022-10-17T23:23:27.469Z,100665.75
2022-10-17T23:25:54.168Z,100674.31
2022-10-17T23:28:20.912Z,100673.47
2022-10-17T23:30:47.661Z,100674.31
2022-10-17T23:33:14.519Z,100665.78
2022-10-17T23:35:41.776Z,100663.22
2022-10-17T23:38:09.342Z,100670.91
2022-10-17T23:40:36.238Z,100669.22
2022-10-17T23:43:04.424Z,100669.25
2022-10-17T23:45:36.122Z,100668.38
2022-10-17T23:48:05.449Z,100667.53
2022-10-17T23:50:32.198Z,100671.81
2022-10-17T23:52:58.981Z,100672.63
2022-10-17T23:55:25.759Z,100672.63
2022-10-17T23:57:53.058Z,100663.19
